Time;durP1;ratioP1;P1;durP2;ratioP2;P2;SDS_P1;SDS_P2;PMS_P1;PMS_P2;Temp;Humidity;BMP_temperature;BMP_pressure;BME280_temperature;BME280_humidity;BME280_pressure;Samples;Min_cycle;Max_cycle;Signal;HPM_P1;HPM_P2
2022/01/18 00:00:36;;;;;;;;;;;;;;;1.51;100.00;103573.41;2090993;28;19909;-68
2022/01/18 00:01:36;;;;;;;;;;;;;;;1.52;100.00;103577.72;2082806;28;20063;-67
2022/01/18 00:02:39;;;;;;;;;;;;;;;1.54;100.00;103579.53;2091007;28;20568;-68
2022/01/18 00:03:39;;;;;;;;;;;;;;;1.59;100.00;103581.41;2091101;28;19912;-68
2022/01/18 00:04:39;;;;;;;;;;;;;;;1.62;100.00;103574.72;2091626;28;19959;-68
2022/01/18 00:05:42;;;;;;;;;;;;;;;1.66;100.00;103575.69;2091613;28;19919;-67
2022/01/18 00:06:47;;;;;;;;;;;;;;;1.70;100.00;103585.31;2091623;28;19908;-68
2022/01/18 00:07:48;;;;;;;;;;;;;;;1.72;100.00;103578.53;2091559;28;20008;-68
2022/01/18 00:08:48;;;;;;;;;;;;;;;1.77;100.00;103592.44;2090815;28;19909;-67
2022/01/18 00:09:49;;;;;;;;;;;;;;;1.78;100.00;103591.63;2082687;28;19963;-68
2022/01/18 00:10:49;;;;;;;;;;;;;;;1.82;100.00;103594.31;2090988;28;19908;-67
2022/01/18 00:12:10;;;;;;;;;;;;;;;1.84;100.00;103588.41;2091507;28;19909;-68
2022/01/18 00:14:55;;;;;;;;;;;;;;;1.88;100.00;103594.56;2091481;28;19913;-67
2022/01/18 00:17:16;;;;;;;;;;;;;;;1.93;100.00;103598.19;2092692;28;19931;-67
2022/01/18 00:18:18;;;;;;;;;;;;;;;1.98;100.00;103595.81;2091641;28;19959;-67
2022/01/18 00:19:23;;;;;;;;;;;;;;;2.02;100.00;103585.66;2091629;28;20015;-67
2022/01/18 00:20:35;;;;;;;;;;;;;;;2.09;100.00;103586.75;2091479;28;19950;-68
2022/01/18 00:22:02;;;;;;;;;;;;;;;2.11;100.00;103587.69;2091432;28;19971;-68
2022/01/18 00:22:58;;;;;;;;;;;;;;;2.14;100.00;103586.94;2091344;28;19909;-68
2022/01/18 00:23:59;;;;;;;;;;;;;;;2.19;100.00;103593.16;2091529;28;19908;-68
2022/01/18 00:25:00;;;;;;;;;;;;;;;2.25;100.00;103582.16;2091473;28;20340;-68
2022/01/18 00:26:01;;;;;;;;;;;;;;;2.29;100.00;103592.66;2091398;28;20286;-68
2022/01/18 00:27:08;;;;;;;;;;;;;;;2.35;100.00;103580.81;2090568;28;19908;-68
2022/01/18 00:28:08;;;;;;;;;;;;;;;2.39;100.00;103587.84;2090931;28;20003;-67
2022/01/18 00:29:12;;;;;;;;;;;;;;;2.42;100.00;103578.53;2091454;28;20413;-68
2022/01/18 00:32:39;;;;;;;;;;;;;;;2.56;100.00;103584.16;2091492;28;20047;-68
2022/01/18 00:34:45;;;;;;;;;;;;;;;2.60;100.00;103597.19;2094109;28;19917;-68
2022/01/18 00:35:47;;;;;;;;;;;;;;;2.61;100.00;103597.22;2091366;28;19917;-68
2022/01/18 00:37:53;;;;;;;;;;;;;;;2.67;100.00;103599.16;2094144;28;19979;-68
2022/01/18 00:38:54;;;;;;;;;;;;;;;2.70;100.00;103594.97;2091374;28;19913;-68
2022/01/18 00:39:55;;;;;;;;;;;;;;;2.73;100.00;103594.19;2091319;28;19909;-68
2022/01/18 00:40:56;;;;;;;;;;;;;;;2.74;100.00;103595.94;2090689;28;19908;-68
2022/01/18 00:41:56;;;;;;;;;;;;;;;2.75;100.00;103596.81;2090808;28;19947;-68
2022/01/18 00:42:56;;;;;;;;;;;;;;;2.76;100.00;103599.47;2091316;28;19940;-68
2022/01/18 00:43:56;;;;;;;;;;;;;;;2.77;100.00;103598.63;2091303;28;19960;-68
2022/01/18 00:44:56;;;;;;;;;;;;;;;2.80;100.00;103603.91;2091359;28;19916;-68
2022/01/18 00:45:57;;;;;;;;;;;;;;;2.82;100.00;103604.84;2091252;28;19916;-68
2022/01/18 00:46:57;;;;;;;;;;;;;;;2.85;100.00;103608.34;2091297;28;19913;-68
2022/01/18 00:47:57;;;;;;;;;;;;;;;2.85;100.00;103603.19;2090575;28;19916;-68
2022/01/18 00:49:00;;;;;;;;;;;;;;;2.87;100.00;103606.72;2090700;28;19919;-68
2022/01/18 00:50:03;;;;;;;;;;;;;;;2.90;100.00;103609.38;2091276;28;19908;-68
2022/01/18 00:51:05;;;;;;;;;;;;;;;2.91;100.00;103614.59;2091316;28;19908;-68
2022/01/18 00:52:05;;;;;;;;;;;;;;;2.92;100.00;103610.31;2091245;28;19909;-68
2022/01/18 00:53:10;;;;;;;;;;;;;;;2.93;100.00;103606.91;2090535;28;19975;-68
2022/01/18 00:54:13;;;;;;;;;;;;;;;2.94;100.00;103611.22;2082775;28;19909;-68
2022/01/18 00:55:14;;;;;;;;;;;;;;;2.97;100.00;103613.91;2082547;28;19913;-68
2022/01/18 00:57:18;;;;;;;;;;;;;;;3.01;100.00;103615.78;2093603;28;19950;-68
2022/01/18 00:58:18;;;;;;;;;;;;;;;3.01;100.00;103610.63;2090394;28;19959;-68
2022/01/18 00:59:19;;;;;;;;;;;;;;;2.99;100.00;103609.69;2090645;28;19916;-69
2022/01/18 01:00:19;;;;;;;;;;;;;;;2.99;100.00;103609.69;2090519;28;19913;-68
2022/01/18 01:01:21;;;;;;;;;;;;;;;3.01;100.00;103614.91;2090500;28;20341;-68
2022/01/18 01:02:21;;;;;;;;;;;;;;;3.01;100.00;103620.94;2089868;28;20062;-68
2022/01/18 01:03:21;;;;;;;;;;;;;;;3.01;100.00;103620.94;2082251;28;19917;-68
2022/01/18 01:04:25;;;;;;;;;;;;;;;3.03;100.00;103619.28;2082147;28;19909;-68
2022/01/18 01:05:26;;;;;;;;;;;;;;;3.05;100.00;103614.19;2090611;28;20309;-68
2022/01/18 01:06:26;;;;;;;;;;;;;;;3.07;100.00;103616.00;2091160;28;20294;-68
2022/01/18 01:07:26;;;;;;;;;;;;;;;3.08;100.00;103615.16;2091187;28;19908;-68
2022/01/18 01:08:27;;;;;;;;;;;;;;;3.12;100.00;103612.69;2091165;28;19936;-68
2022/01/18 01:09:27;;;;;;;;;;;;;;;3.14;100.00;103611.03;2090505;28;19939;-68
2022/01/18 01:10:28;;;;;;;;;;;;;;;3.15;100.00;103612.81;2090520;28;20243;-68
2022/01/18 01:11:28;;;;;;;;;;;;;;;3.18;100.00;103618.06;2091184;28;19915;-68
2022/01/18 01:12:28;;;;;;;;;;;;;;;3.20;100.00;103609.56;2093924;28;19909;-68
2022/01/18 01:13:30;;;;;;;;;;;;;;;3.21;100.00;103608.72;2091019;28;20369;-68
2022/01/18 01:14:32;;;;;;;;;;;;;;;3.22;100.00;103609.59;2091014;28;20004;-68
2022/01/18 01:15:39;;;;;;;;;;;;;;;3.23;100.00;103608.78;2090988;28;19923;-68
2022/01/18 01:17:06;;;;;;;;;;;;;;;3.25;100.00;103613.97;2091018;28;20358;-68
2022/01/18 01:18:19;;;;;;;;;;;;;;;3.26;100.00;103602.81;2090335;28;20290;-68
2022/01/18 01:19:32;;;;;;;;;;;;;;;3.27;100.00;103602.88;2090585;28;19915;-67
2022/01/18 01:44:59;;;;;;;;;;;;;;;3.57;100.00;103606.41;2093637;28;20392;-67
2022/01/18 01:46:02;;;;;;;;;;;;;;;3.58;100.00;103613.31;2090117;28;19909;-67
2022/01/18 01:47:02;;;;;;;;;;;;;;;3.57;100.00;103609.88;2082162;28;19909;-67
2022/01/18 01:48:03;;;;;;;;;;;;;;;3.59;100.00;103609.88;2090225;28;19924;-67
2022/01/18 01:49:07;;;;;;;;;;;;;;;3.59;100.00;103610.78;2090185;28;19913;-68
2022/01/18 01:50:18;;;;;;;;;;;;;;;3.57;100.00;103607.28;2090152;28;19924;-68
2022/01/18 01:51:20;;;;;;;;;;;;;;;3.57;100.00;103607.28;2090147;28;19916;-68
2022/01/18 01:52:20;;;;;;;;;;;;;;;3.58;100.00;103603.88;2081996;28;19916;-68
2022/01/18 01:53:22;;;;;;;;;;;;;;;3.58;100.00;103603.88;2090130;28;19908;-68
2022/01/18 01:54:23;;;;;;;;;;;;;;;3.59;100.00;103610.78;2090232;28;19916;-68
2022/01/18 01:55:23;;;;;;;;;;;;;;;3.60;100.00;103602.19;2090003;28;19913;-67
2022/01/18 01:56:24;;;;;;;;;;;;;;;3.60;100.00;103607.34;2090172;28;19909;-67
2022/01/18 01:57:24;;;;;;;;;;;;;;;3.60;100.00;103606.50;2090738;28;19995;-67
2022/01/18 01:58:25;;;;;;;;;;;;;;;3.60;100.00;103611.66;2090639;28;19999;-68
2022/01/18 01:59:26;;;;;;;;;;;;;;;3.60;100.00;103609.94;2090791;28;20366;-67
2022/01/18 02:00:26;;;;;;;;;;;;;;;3.60;100.00;103609.94;2090664;28;19986;-67
2022/01/18 02:01:27;;;;;;;;;;;;;;;3.60;100.00;103612.53;2090697;28;20298;-67
2022/01/18 02:02:30;;;;;;;;;;;;;;;3.61;100.00;103610.81;2090536;28;19923;-67
2022/01/18 02:03:30;;;;;;;;;;;;;;;3.62;100.00;103609.13;2090001;28;20003;-67
2022/01/18 02:04:30;;;;;;;;;;;;;;;3.63;100.00;103610.88;2090045;28;19916;-68
2022/01/18 02:05:30;;;;;;;;;;;;;;;3.65;100.00;103614.38;2090711;28;19920;-68
2022/01/18 02:06:31;;;;;;;;;;;;;;;3.65;100.00;103614.38;2090666;28;19919;-67
2022/01/18 02:07:31;;;;;;;;;;;;;;;3.67;100.00;103617.88;2090601;28;19909;-68
2022/01/18 02:08:31;;;;;;;;;;;;;;;3.66;100.00;103610.97;2090005;28;19909;-67
2022/01/18 02:09:31;;;;;;;;;;;;;;;3.66;100.00;103616.16;2081820;28;19909;-67
2022/01/18 02:10:31;;;;;;;;;;;;;;;3.66;100.00;103610.97;2089954;28;19951;-68
2022/01/18 02:11:32;;;;;;;;;;;;;;;3.65;100.00;103606.63;2090693;28;19909;-68
2022/01/18 02:12:32;;;;;;;;;;;;;;;3.66;100.00;103608.41;2090578;28;19909;-68
2022/01/18 02:13:33;;;;;;;;;;;;;;;3.66;100.00;103616.16;2090486;28;19959;-67
2022/01/18 02:14:34;;;;;;;;;;;;;;;3.67;100.00;103613.63;2089800;28;19950;-68
2022/01/18 02:15:39;;;;;;;;;;;;;;;3.67;100.00;103612.72;2089975;28;19908;-67
2022/01/18 02:21:46;;;;;;;;;;;;;;;3.69;100.00;103621.38;2084391;28;19909;-68
2022/01/18 02:22:48;;;;;;;;;;;;;;;3.68;100.00;103615.34;2090431;28;19916;-67
2022/01/18 02:23:48;;;;;;;;;;;;;;;3.69;100.00;103616.22;2089657;28;19908;-67
2022/01/18 02:24:48;;;;;;;;;;;;;;;3.69;100.00;103611.06;2089373;28;20412;-67
2022/01/18 02:25:49;;;;;;;;;;;;;;;3.70;100.00;103612.81;2089761;28;19974;-68
2022/01/18 02:26:49;;;;;;;;;;;;;;;3.70;100.00;103611.09;2090474;28;19915;-68
2022/01/18 02:27:49;;;;;;;;;;;;;;;3.71;100.00;103609.41;2090374;28;19990;-68
2022/01/18 02:28:49;;;;;;;;;;;;;;;3.70;100.00;103607.66;2090501;28;19908;-68
2022/01/18 02:29:50;;;;;;;;;;;;;;;3.68;100.00;103604.13;2090462;28;19967;-68
2022/01/18 02:30:50;;;;;;;;;;;;;;;3.69;100.00;103605.88;2090522;28;19908;-68
2022/01/18 02:31:51;;;;;;;;;;;;;;;3.69;100.00;103605.88;2093288;28;19975;-68
2022/01/18 02:32:52;;;;;;;;;;;;;;;3.69;100.00;103608.47;2090527;28;19940;-68
2022/01/18 02:33:52;;;;;;;;;;;;;;;3.68;100.00;103604.13;2090425;28;19908;-68
2022/01/18 02:34:52;;;;;;;;;;;;;;;3.69;100.00;103605.88;2090308;28;19917;-67
2022/01/18 02:35:52;;;;;;;;;;;;;;;3.71;100.00;103604.25;2090535;28;19920;-69
2022/01/18 02:36:54;;;;;;;;;;;;;;;3.71;100.00;103605.13;2089793;28;20251;-68
2022/01/18 02:37:54;;;;;;;;;;;;;;;3.72;100.00;103609.47;2089851;28;19909;-68
2022/01/18 02:38:54;;;;;;;;;;;;;;;3.73;100.00;103594.84;2090497;28;19966;-68
2022/01/18 02:39:54;;;;;;;;;;;;;;;3.73;100.00;103598.28;2090467;28;20374;-68
2022/01/18 02:40:55;;;;;;;;;;;;;;;3.73;100.00;103593.13;2089782;28;20031;-68
2022/01/18 02:41:56;;;;;;;;;;;;;;;3.71;100.00;103596.50;2089891;28;19916;-68
2022/01/18 02:43:46;;;;;;;;;;;;;;;3.70;100.00;103594.75;2090525;28;19908;-68
2022/01/18 02:44:21;;;;;;;;;;;;;;;3.71;100.00;103594.81;2090281;28;19915;-68
2022/01/18 02:45:21;;;;;;;;;;;;;;;3.72;100.00;103585.31;2090451;28;19909;-68
2022/01/18 02:46:22;;;;;;;;;;;;;;;3.73;100.00;103592.28;2090454;28;19916;-68
2022/01/18 02:47:23;;;;;;;;;;;;;;;3.73;100.00;103589.69;2090348;28;19958;-68
2022/01/18 02:48:23;;;;;;;;;;;;;;;3.74;100.00;103594.00;2090466;28;19961;-67
2022/01/18 02:49:24;;;;;;;;;;;;;;;3.73;100.00;103587.97;2090330;28;19909;-67
2022/01/18 02:50:24;;;;;;;;;;;;;;;3.74;100.00;103591.44;2090427;28;20002;-67
2022/01/18 02:51:25;;;;;;;;;;;;;;;3.75;100.00;103598.34;2089728;28;19950;-67
2022/01/18 02:52:25;;;;;;;;;;;;;;;3.75;100.00;103595.75;2089906;28;19963;-67
2022/01/18 02:53:25;;;;;;;;;;;;;;;3.76;100.00;103594.06;2090359;28;19958;-68
2022/01/18 02:54:25;;;;;;;;;;;;;;;3.75;100.00;103600.91;2089704;28;19913;-68
2022/01/18 02:55:25;;;;;;;;;;;;;;;3.74;100.00;103594.00;2089747;28;19921;-66
2022/01/18 02:56:27;;;;;;;;;;;;;;;3.74;100.00;103594.00;2090436;28;20259;-68
2022/01/18 02:57:27;;;;;;;;;;;;;;;3.75;100.00;103600.91;2090353;28;20329;-67
2022/01/18 02:58:31;;;;;;;;;;;;;;;3.74;100.00;103600.03;2090393;28;19920;-67
2022/01/18 02:59:46;;;;;;;;;;;;;;;3.74;100.00;103602.63;2090290;28;19908;-67
2022/01/18 03:03:37;;;;;;;;;;;;;;;3.78;100.00;103598.44;2093190;28;19908;-68
2022/01/18 03:04:38;;;;;;;;;;;;;;;3.78;100.00;103592.38;2090447;28;19952;-68
2022/01/18 03:05:43;;;;;;;;;;;;;;;3.77;100.00;103594.13;2093128;28;19930;-68
2022/01/18 03:06:43;;;;;;;;;;;;;;;3.78;100.00;103593.28;2090464;28;19909;-67
2022/01/18 03:07:43;;;;;;;;;;;;;;;3.76;100.00;103587.16;2090341;28;19959;-67
2022/01/18 03:08:43;;;;;;;;;;;;;;;3.78;100.00;103589.81;2093126;28;20427;-67
2022/01/18 03:09:44;;;;;;;;;;;;;;;3.79;100.00;103587.28;2089744;28;19931;-68
2022/01/18 03:10:44;;;;;;;;;;;;;;;3.79;100.00;103587.28;2089844;28;19923;-68
2022/01/18 03:11:44;;;;;;;;;;;;;;;3.81;100.00;103589.91;2090318;28;19909;-69
2022/01/18 03:12:44;;;;;;;;;;;;;;;3.81;100.00;103592.47;2090380;28;20362;-68
2022/01/18 03:13:45;;;;;;;;;;;;;;;3.81;100.00;103593.38;2090305;28;19909;-68
2022/01/18 03:14:45;;;;;;;;;;;;;;;3.81;100.00;103597.66;2090273;28;19908;-68
2022/01/18 03:15:46;;;;;;;;;;;;;;;3.82;100.00;103604.56;2090381;28;20396;-68
2022/01/18 03:16:46;;;;;;;;;;;;;;;3.81;100.00;103595.97;2089728;28;19909;-68
2022/01/18 03:17:46;;;;;;;;;;;;;;;3.81;100.00;103601.13;2089765;28;19923;-67
2022/01/18 03:18:46;;;;;;;;;;;;;;;3.80;100.00;103601.94;2090397;28;19963;-67
2022/01/18 03:19:47;;;;;;;;;;;;;;;3.80;100.00;103606.25;2090315;28;19917;-67
2022/01/18 03:20:47;;;;;;;;;;;;;;;3.81;100.00;103600.22;2090346;28;20054;-67
2022/01/18 03:21:49;;;;;;;;;;;;;;;3.80;100.00;103614.84;2090331;28;20386;-68
2022/01/18 03:22:50;;;;;;;;;;;;;;;3.81;100.00;103606.28;2090277;28;19908;-68
2022/01/18 03:24:10;;;;;;;;;;;;;;;3.81;100.00;103606.28;2090218;28;19963;-67
2022/01/18 03:25:25;;;;;;;;;;;;;;;3.81;100.00;103611.47;2090838;28;19917;-67
2022/01/18 03:26:33;;;;;;;;;;;;;;;3.81;100.00;103608.88;2092016;28;19948;-67
2022/01/18 03:28:52;;;;;;;;;;;;;;;3.79;100.00;103602.78;2094873;28;20353;-67
2022/01/18 03:29:52;;;;;;;;;;;;;;;3.79;100.00;103599.28;2091929;28;19913;-67
2022/01/18 03:30:58;;;;;;;;;;;;;;;3.79;100.00;103600.19;2091890;28;20366;-67
2022/01/18 03:31:58;;;;;;;;;;;;;;;3.80;100.00;103611.41;2091978;28;19917;-68
2022/01/18 03:32:58;;;;;;;;;;;;;;;3.80;100.00;103609.69;2091927;28;20377;-69
2022/01/18 03:33:58;;;;;;;;;;;;;;;3.80;100.00;103609.69;2091925;28;19916;-68
2022/01/18 03:34:58;;;;;;;;;;;;;;;3.81;100.00;103620.91;2091836;28;19963;-68
2022/01/18 03:35:59;;;;;;;;;;;;;;;3.81;100.00;103620.91;2091118;28;19909;-68
2022/01/18 03:36:59;;;;;;;;;;;;;;;3.82;100.00;103617.47;2091334;28;20392;-68
2022/01/18 03:37:59;;;;;;;;;;;;;;;3.82;100.00;103613.19;2091871;28;19940;-68
2022/01/18 03:39:00;;;;;;;;;;;;;;;3.82;100.00;103607.16;2091973;28;19912;-68
2022/01/18 03:40:00;;;;;;;;;;;;;;;3.81;100.00;103610.56;2091924;28;19917;-67
2022/01/18 03:41:01;;;;;;;;;;;;;;;3.79;100.00;103607.94;2091907;28;19909;-68
2022/01/18 03:42:32;;;;;;;;;;;;;;;3.79;100.00;103609.63;2091856;28;19916;-68
2022/01/18 03:43:22;;;;;;;;;;;;;;;3.78;100.00;103606.19;2091769;28;19974;-69
2022/01/18 03:44:25;;;;;;;;;;;;;;;3.78;100.00;103605.31;2091154;28;19913;-68
2022/01/18 03:45:29;;;;;;;;;;;;;;;3.76;100.00;103602.66;2083204;28;20022;-68
2022/01/18 03:46:31;;;;;;;;;;;;;;;3.79;100.00;103604.47;2091294;28;19915;-68
2022/01/18 03:47:32;;;;;;;;;;;;;;;3.80;100.00;103601.94;2091971;28;19920;-68
2022/01/18 03:48:38;;;;;;;;;;;;;;;3.81;100.00;103606.28;2090989;28;20378;-68
2022/01/18 03:49:38;;;;;;;;;;;;;;;3.79;100.00;103607.94;2083499;28;19916;-67
2022/01/18 03:50:38;;;;;;;;;;;;;;;3.78;100.00;103611.34;2091163;28;19916;-67
2022/01/18 03:51:39;;;;;;;;;;;;;;;3.79;100.00;103618.28;2091750;28;20008;-68
2022/01/18 03:52:40;;;;;;;;;;;;;;;3.79;100.00;103612.22;2091741;28;19948;-67
2022/01/18 03:53:40;;;;;;;;;;;;;;;3.79;100.00;103613.09;2091786;28;19913;-67
2022/01/18 03:54:47;;;;;;;;;;;;;;;3.81;100.00;103615.72;2091666;28;19948;-67
2022/01/18 03:55:47;;;;;;;;;;;;;;;3.81;100.00;103616.63;2091730;28;19909;-67
2022/01/18 03:56:47;;;;;;;;;;;;;;;3.84;100.00;103626.16;2091736;28;20308;-67
2022/01/18 03:57:48;;;;;;;;;;;;;;;3.83;100.00;103620.13;2091710;28;20011;-67
2022/01/18 03:58:48;;;;;;;;;;;;;;;3.83;100.00;103614.94;2090933;28;20206;-68
2022/01/18 03:59:48;;;;;;;;;;;;;;;3.85;100.00;103621.06;2091040;28;19922;-68
2022/01/18 04:00:50;;;;;;;;;;;;;;;3.85;100.00;103613.31;2090943;28;19960;-68
2022/01/18 04:01:50;;;;;;;;;;;;;;;3.85;100.00;103627.91;2091017;28;19986;-68
2022/01/18 04:02:51;;;;;;;;;;;;;;;3.83;100.00;103622.69;2091630;28;19916;-68
2022/01/18 04:03:51;;;;;;;;;;;;;;;3.83;100.00;103619.25;2090935;28;19909;-68
2022/01/18 04:04:51;;;;;;;;;;;;;;;3.82;100.00;103623.53;2091078;28;19909;-67
2022/01/18 04:05:52;;;;;;;;;;;;;;;3.81;100.00;103621.78;2090899;28;19915;-67
2022/01/18 04:06:52;;;;;;;;;;;;;;;3.82;100.00;103617.47;2090999;28;19908;-67
2022/01/18 04:07:53;;;;;;;;;;;;;;;3.81;100.00;103621.78;2091629;28;20176;-68
2022/01/18 04:08:53;;;;;;;;;;;;;;;3.83;100.00;103625.28;2091658;28;19908;-68
2022/01/18 04:09:53;;;;;;;;;;;;;;;3.84;100.00;103626.16;2091672;28;19913;-68
2022/01/18 04:10:53;;;;;;;;;;;;;;;3.83;100.00;103630.44;2091566;28;20366;-68
2022/01/18 04:11:53;;;;;;;;;;;;;;;3.82;100.00;103628.69;2091601;28;19913;-67
2022/01/18 04:12:56;;;;;;;;;;;;;;;3.82;100.00;103623.53;2091462;28;19908;-67
2022/01/18 04:13:56;;;;;;;;;;;;;;;3.83;100.00;103630.44;2091467;28;19915;-66
2022/01/18 04:14:57;;;;;;;;;;;;;;;3.83;100.00;103627.00;2091476;28;20277;-67
2022/01/18 04:15:57;;;;;;;;;;;;;;;3.83;100.00;103627.88;2091621;28;19913;-67
2022/01/18 04:17:08;;;;;;;;;;;;;;;3.83;100.00;103622.69;2090906;28;19908;-67
2022/01/18 04:25:52;;;;;;;;;;;;;;;3.81;100.00;103632.13;2094367;28;20019;-68
2022/01/18 04:26:00;;;;;;;;;;;;;;;3.81;100.00;103637.28;2091317;28;20381;-68
2022/01/18 04:27:01;;;;;;;;;;;;;;;3.82;100.00;103632.97;2091489;28;19913;-68
2022/01/18 04:28:09;;;;;;;;;;;;;;;3.82;100.00;103633.88;2091328;28;20377;-67
2022/01/18 04:29:11;;;;;;;;;;;;;;;3.83;100.00;103633.03;2091511;28;19916;-68
2022/01/18 04:30:11;;;;;;;;;;;;;;;3.83;100.00;103634.75;2091463;28;19955;-68
2022/01/18 04:31:11;;;;;;;;;;;;;;;3.83;100.00;103634.75;2090718;28;20321;-67
2022/01/18 04:32:11;;;;;;;;;;;;;;;3.82;100.00;103633.88;2082549;28;19912;-67
2022/01/18 04:33:12;;;;;;;;;;;;;;;3.82;100.00;103628.69;2090798;28;19993;-68
2022/01/18 04:34:12;;;;;;;;;;;;;;;3.83;100.00;103630.44;2091399;28;19913;-68
2022/01/18 04:35:12;;;;;;;;;;;;;;;3.83;100.00;103630.44;2091408;28;20362;-68
2022/01/18 04:36:12;;;;;;;;;;;;;;;3.82;100.00;103631.28;2090389;28;19991;-67
2022/01/18 04:37:13;;;;;;;;;;;;;;;3.81;100.00;103624.38;2089887;28;19971;-68
2022/01/18 04:38:13;;;;;;;;;;;;;;;3.81;100.00;103632.13;2090697;28;19912;-68
2022/01/18 04:39:14;;;;;;;;;;;;;;;3.81;100.00;103637.28;2090638;28;19915;-67
2022/01/18 04:40:17;;;;;;;;;;;;;;;3.82;100.00;103635.56;2090746;28;19916;-67
2022/01/18 04:41:24;;;;;;;;;;;;;;;3.81;100.00;103631.22;2090774;28;19912;-67
2022/01/18 04:48:56;;;;;;;;;;;;;;;3.82;100.00;103638.16;2094588;28;19909;-67
2022/01/18 04:49:56;;;;;;;;;;;;;;;3.82;100.00;103639.03;2091996;28;19908;-67
2022/01/18 04:50:59;;;;;;;;;;;;;;;3.84;100.00;103633.91;2091981;28;19948;-68
2022/01/18 04:51:59;;;;;;;;;;;;;;;3.85;100.00;103635.66;2095351;28;19935;-68
2022/01/18 04:52:59;;;;;;;;;;;;;;;3.83;100.00;103625.28;2091143;28;20015;-68
2022/01/18 04:54:01;;;;;;;;;;;;;;;3.83;100.00;103630.44;2090845;28;20290;-68
2022/01/18 04:55:03;;;;;;;;;;;;;;;3.82;100.00;103623.53;2091296;28;20392;-67
2022/01/18 04:56:07;;;;;;;;;;;;;;;3.82;100.00;103626.13;2090631;28;19909;-67
2022/01/18 04:58:08;;;;;;;;;;;;;;;3.81;100.00;103637.28;2094036;28;19916;-68
2022/01/18 04:59:10;;;;;;;;;;;;;;;3.79;100.00;103630.28;2091199;28;20381;-68
2022/01/18 05:00:10;;;;;;;;;;;;;;;3.78;100.00;103637.19;2091192;28;19913;-68
2022/01/18 05:01:12;;;;;;;;;;;;;;;3.77;100.00;103639.72;2091171;28;19912;-68
2022/01/18 05:02:12;;;;;;;;;;;;;;;3.75;100.00;103639.66;2091158;28;19919;-68
2022/01/18 05:03:12;;;;;;;;;;;;;;;3.74;100.00;103636.19;2091115;28;19915;-68
2022/01/18 05:04:13;;;;;;;;;;;;;;;3.74;100.00;103633.63;2091167;28;19909;-68
2022/01/18 05:05:23;;;;;;;;;;;;;;;3.76;100.00;103638.84;2091112;28;19909;-68
2022/01/18 05:06:24;;;;;;;;;;;;;;;3.77;100.00;103640.63;2091192;28;19912;-68
2022/01/18 05:07:24;;;;;;;;;;;;;;;3.76;100.00;103641.41;2091211;28;19952;-68
2022/01/18 05:08:25;;;;;;;;;;;;;;;3.75;100.00;103642.25;2091272;28;19920;-68
2022/01/18 05:09:25;;;;;;;;;;;;;;;3.73;100.00;103642.19;2091180;28;19932;-68
2022/01/18 05:10:28;;;;;;;;;;;;;;;3.73;100.00;103638.75;2090495;28;19912;-68
2022/01/18 05:11:32;;;;;;;;;;;;;;;3.71;100.00;103645.56;2090640;28;19913;-67
2022/01/18 05:12:44;;;;;;;;;;;;;;;3.70;100.00;103641.25;2091019;28;19908;-68
2022/01/18 05:14:12;;;;;;;;;;;;;;;3.69;100.00;103644.63;2090453;28;20365;-68
2022/01/18 05:17:56;;;;;;;;;;;;;;;3.69;100.00;103647.22;2091206;28;20008;-68
2022/01/18 05:20:41;;;;;;;;;;;;;;;3.70;100.00;103647.25;2093903;28;20059;-68
2022/01/18 05:21:28;;;;;;;;;;;;;;;3.72;100.00;103647.31;2090994;28;19909;-67
2022/01/18 05:23:47;;;;;;;;;;;;;;;3.70;100.00;103649.00;2093984;28;19912;-68
2022/01/18 05:24:47;;;;;;;;;;;;;;;3.69;100.00;103647.22;2090964;28;20365;-68
2022/01/18 05:25:47;;;;;;;;;;;;;;;3.68;100.00;103651.53;2090978;28;19916;-68
2022/01/18 05:26:48;;;;;;;;;;;;;;;3.68;100.00;103641.19;2091026;28;20022;-68
2022/01/18 05:27:48;;;;;;;;;;;;;;;3.69;100.00;103649.78;2090867;28;19917;-68
2022/01/18 05:28:48;;;;;;;;;;;;;;;3.69;100.00;103647.22;2091041;28;19915;-68
2022/01/18 05:29:49;;;;;;;;;;;;;;;3.67;100.00;103648.88;2091032;28;19962;-68
2022/01/18 05:30:50;;;;;;;;;;;;;;;3.67;100.00;103648.88;2091096;28;19908;-68
2022/01/18 05:31:50;;;;;;;;;;;;;;;3.67;100.00;103644.63;2090973;28;19963;-67
2022/01/18 05:32:50;;;;;;;;;;;;;;;3.66;100.00;103644.56;2090319;28;19908;-68
2022/01/18 05:33:51;;;;;;;;;;;;;;;3.66;100.00;103641.97;2090396;28;19909;-67
2022/01/18 05:34:51;;;;;;;;;;;;;;;3.67;100.00;103641.13;2090877;28;19916;-67
2022/01/18 05:35:51;;;;;;;;;;;;;;;3.67;100.00;103646.31;2090970;28;19908;-68
2022/01/18 05:36:52;;;;;;;;;;;;;;;3.67;100.00;103647.19;2090170;28;19975;-68
2022/01/18 05:37:52;;;;;;;;;;;;;;;3.68;100.00;103651.53;2090313;28;19956;-68
2022/01/18 05:38:52;;;;;;;;;;;;;;;3.69;100.00;103652.38;2090978;28;19909;-68
2022/01/18 05:39:52;;;;;;;;;;;;;;;3.70;100.00;103649.00;2090986;28;19920;-68
2022/01/18 05:40:53;;;;;;;;;;;;;;;3.72;100.00;103649.91;2090924;28;19978;-68
2022/01/18 05:41:53;;;;;;;;;;;;;;;3.71;100.00;103651.63;2090905;28;19920;-68
2022/01/18 05:42:53;;;;;;;;;;;;;;;3.71;100.00;103645.56;2090867;28;19909;-68
2022/01/18 05:43:53;;;;;;;;;;;;;;;3.70;100.00;103644.69;2090908;28;19908;-68
2022/01/18 05:44:53;;;;;;;;;;;;;;;3.71;100.00;103643.00;2090839;28;20373;-68
2022/01/18 05:45:54;;;;;;;;;;;;;;;3.72;100.00;103636.97;2090860;28;19959;-68
2022/01/18 05:46:54;;;;;;;;;;;;;;;3.73;100.00;103644.78;2090878;28;19948;-68
2022/01/18 05:47:54;;;;;;;;;;;;;;;3.76;100.00;103641.41;2090558;28;19909;-69
2022/01/18 05:48:54;;;;;;;;;;;;;;;3.76;100.00;103636.25;2090836;28;19909;-68
2022/01/18 05:49:55;;;;;;;;;;;;;;;3.76;100.00;103635.41;2090704;28;19959;-68
2022/01/18 05:50:59;;;;;;;;;;;;;;;3.74;100.00;103635.34;2090095;28;19909;-68
2022/01/18 05:51:59;;;;;;;;;;;;;;;3.72;100.00;103643.03;2090226;28;20341;-68
2022/01/18 05:52:59;;;;;;;;;;;;;;;3.70;100.00;103643.81;2090855;28;19954;-68
2022/01/18 05:54:00;;;;;;;;;;;;;;;3.70;100.00;103649.00;2090817;28;19908;-68
2022/01/18 05:55:00;;;;;;;;;;;;;;;3.69;100.00;103644.63;2090800;28;20385;-68
2022/01/18 05:56:01;;;;;;;;;;;;;;;3.69;100.00;103648.09;2090814;28;19920;-68
2022/01/18 05:57:01;;;;;;;;;;;;;;;3.66;100.00;103637.66;2090793;28;20021;-67
2022/01/18 05:58:01;;;;;;;;;;;;;;;3.67;100.00;103641.13;2090089;28;20376;-68
2022/01/18 05:59:03;;;;;;;;;;;;;;;3.67;100.00;103644.63;2081849;28;20309;-68
2022/01/18 06:00:05;;;;;;;;;;;;;;;3.67;100.00;103641.13;2090236;28;19954;-67
2022/01/18 06:01:06;;;;;;;;;;;;;;;3.67;100.00;103638.56;2089991;28;19955;-67
2022/01/18 06:03:34;;;;;;;;;;;;;;;3.68;100.00;103636.03;2093636;28;19909;-67
2022/01/18 06:07:13;;;;;;;;;;;;;;;3.71;100.00;103641.28;2090815;28;19936;-68
2022/01/18 06:08:14;;;;;;;;;;;;;;;3.72;100.00;103642.16;2090647;28;19909;-68
2022/01/18 06:09:14;;;;;;;;;;;;;;;3.70;100.00;103636.06;2089969;28;19912;-68
2022/01/18 06:10:14;;;;;;;;;;;;;;;3.72;100.00;103642.16;2090037;28;19920;-68
2022/01/18 06:11:14;;;;;;;;;;;;;;;3.72;100.00;103643.03;2090662;28;20425;-68
2022/01/18 06:12:15;;;;;;;;;;;;;;;3.71;100.00;103638.72;2090648;28;19916;-68
2022/01/18 06:13:15;;;;;;;;;;;;;;;3.71;100.00;103638.72;2090691;28;19955;-68
2022/01/18 06:14:16;;;;;;;;;;;;;;;3.71;100.00;103641.28;2090530;28;19916;-68
2022/01/18 06:15:16;;;;;;;;;;;;;;;3.73;100.00;103638.75;2090535;28;19919;-68
2022/01/18 06:16:17;;;;;;;;;;;;;;;3.72;100.00;103642.16;2090604;28;20390;-68
2022/01/18 06:17:17;;;;;;;;;;;;;;;3.73;100.00;103641.34;2090648;28;20259;-68
2022/01/18 06:18:18;;;;;;;;;;;;;;;3.73;100.00;103638.75;2090629;28;19951;-68
2022/01/18 06:19:18;;;;;;;;;;;;;;;3.74;100.00;103640.50;2089928;28;19916;-68
2022/01/18 06:20:18;;;;;;;;;;;;;;;3.74;100.00;103640.50;2090017;28;19920;-68
2022/01/18 06:21:18;;;;;;;;;;;;;;;3.76;100.00;103645.72;2090582;28;20056;-68
2022/01/18 06:22:18;;;;;;;;;;;;;;;3.76;100.00;103644.00;2090568;28;20278;-68
2022/01/18 06:23:20;;;;;;;;;;;;;;;3.76;100.00;103649.16;2089840;28;19913;-68